Promitheas — SYIJ — position and weather

sailwx.info

Track history (hours):
 
Tides and Currents Weather Stations Pressure Air Temp Water Temp Dewpoint Dewpoint Depression Visibility Wind Speed Wind Dir Waves Ship Positions

Promitheas

Last reported at 2014-Jul-24 12:09 UTC. Time now 2014-Jul-28 22:38 UTC.
Position N 31°08' E 029°35'.

Length 249 m; draft 8.4 m.

Type: Tanker. MMSI: 240547000.

Date/timePositionNaut miles runAvg speedWind from/ knotsBaromVisibWave heightAir tempDewpointWater temp
2014-Jul-24 12:09N 31°08' E 029°35'0 0.0
2014-Jul-24 09:21N 31°08' E 029°35'0 0.0
2014-Jul-24 08:33N 31°08' E 029°35'0 0.0
2014-Jul-24 07:33N 31°08' E 029°35'0 0.0
2014-Jul-24 06:27N 31°08' E 029°35'1 1.3
2014-Jul-24 05:33N 31°09' E 029°35'1413.7
2014-Jul-24 04:33N 31°14' E 029°20'1111.2
2014-Jul-24 03:32N 31°18' E 029°08'1311.2
2014-Jul-24 02:21N 31°23' E 028°53'1411.3
2014-Jul-24 01:10N 31°27' E 028°38'711.1
2014-Jul-24 00:33N 31°30' E 028°31'1311.0
2014-Jul-23 23:24N 31°34' E 028°17'910.6
2014-Jul-23 22:33N 31°38' E 028°07'1110.6
2014-Jul-23 21:33N 31°41' E 027°55'1010.5
2014-Jul-23 20:33N 31°45' E 027°44'1010.3
2014-Jul-23 19:33N 31°49' E 027°33'11 2.1
2014-Jul-23 14:10N 31°53' E 027°20'6 9.0
2014-Jul-23 13:33N 31°55' E 027°14'5510.9
2014-Jul-23 08:33N 32°14' E 026°14'6911.5
2014-Jul-23 02:33N 32°39' E 024°57'47311.2
2014-Jul-21 08:25N 35°27' E 016°04'4311.1
2014-Jul-21 04:33N 35°42' E 015°15'1311.2
2014-Jul-21 03:21N 35°47' E 014°59'911.0
2014-Jul-21 02:33N 35°50' E 014°49'5 5.2
2014-Jul-21 01:32N 35°54' E 014°45'0 0.0
2014-Jul-21 00:29N 35°54' E 014°45'0 0.0
2014-Jul-20 23:32N 35°54' E 014°45'0 0.0
2014-Jul-20 22:32N 35°54' E 014°45'0 0.0
2014-Jul-20 21:32N 35°54' E 014°45'0 0.0
2014-Jul-20 20:32N 35°54' E 014°45'0 0.1
2014-Jul-20 19:32N 35°54' E 014°45'0 0.0
2014-Jul-20 18:32N 35°54' E 014°45'0 0.0
2014-Jul-20 17:32N 35°54' E 014°45'0 0.0
2014-Jul-20 16:32N 35°54' E 014°45'0 0.0
2014-Jul-20 15:32N 35°54' E 014°45'0 0.0
2014-Jul-20 14:32N 35°54' E 014°45'1 1.1
2014-Jul-20 13:33N 35°55' E 014°44'10 9.5
2014-Jul-20 12:34N 36°02' E 014°35'1110.9
2014-Jul-20 11:33N 36°10' E 014°26'1111.2
2014-Jul-20 10:33N 36°17' E 014°15'1211.7
2014-Jul-20 09:33N 36°21' E 014°02'1211.7
2014-Jul-20 08:33N 36°26' E 013°49'1211.7
2014-Jul-20 07:33N 36°30' E 013°35'1212.0
2014-Jul-20 06:33N 36°34' E 013°21'1312.7
2014-Jul-20 05:34N 36°39' E 013°07'1313.1
2014-Jul-20 04:33N 36°44' E 012°52'1313.1
2014-Jul-20 03:33N 36°49' E 012°36'1312.8
2014-Jul-20 02:33N 36°54' E 012°22'24011.8
2014-Jul-19 06:11N 38°27' E 007°42'30 9.9
2014-Jul-19 03:11N 38°50' E 007°20'1810.8
2014-Jul-19 01:33N 39°07' E 007°11'1110.7
2014-Jul-19 00:33N 39°17' E 007°06'1110.7
2014-Jul-18 23:33N 39°27' E 007°01'1110.7
2014-Jul-18 22:33N 39°36' E 006°56'1111.1
2014-Jul-18 21:31N 39°47' E 006°50'1111.6
2014-Jul-18 20:32N 39°58' E 006°45'1311.9
2014-Jul-18 19:28N 40°10' E 006°39'3611.7
2014-Jul-18 16:25N 40°43' E 006°21'910.8
2014-Jul-18 15:33N 40°51' E 006°17'1511.5
2014-Jul-18 14:15N 41°05' E 006°09'811.5
2014-Jul-18 13:33N 41°13' E 006°05'1111.5
2014-Jul-18 12:33N 41°23' E 005°60'1211.8
2014-Jul-18 11:33N 41°34' E 005°54'1212.0
2014-Jul-18 10:33N 41°46' E 005°48'1211.8
2014-Jul-18 09:33N 41°57' E 005°42'1211.7
2014-Jul-18 08:33N 42°08' E 005°37'1211.8
2014-Jul-18 07:33N 42°18' E 005°31'1211.9
2014-Jul-18 06:33N 42°29' E 005°25'1211.9
2014-Jul-18 05:33N 42°40' E 005°18'1212.0
2014-Jul-18 04:33N 42°52' E 005°12'1211.7
2014-Jul-18 03:33N 43°02' E 005°06'1211.7
2014-Jul-18 02:33N 43°13' E 005°01'1110.6
2014-Jul-18 01:33N 43°23' E 004°56'2 2.0
2014-Jul-18 00:33N 43°25' E 004°53'0 0.0
2014-Jul-17 23:33N 43°25' E 004°53'0 0.0
2014-Jul-17 22:33N 43°25' E 004°53'0 0.0
2014-Jul-17 21:33N 43°25' E 004°53'0 0.0
2014-Jul-17 20:33N 43°25' E 004°53'0 0.0
2014-Jul-17 19:33N 43°25' E 004°53'0 0.0
2014-Jul-17 18:30N 43°25' E 004°53'0 0.0
2014-Jul-17 17:33N 43°25' E 004°53'0 0.0
2014-Jul-17 16:33N 43°25' E 004°53'0 0.0
2014-Jul-17 15:33N 43°25' E 004°53'0 0.0
2014-Jul-17 14:33N 43°25' E 004°53'0 0.0
2014-Jul-17 13:33N 43°25' E 004°53'0 0.0
2014-Jul-17 12:33N 43°25' E 004°53'0 0.0
2014-Jul-17 11:33N 43°25' E 004°53'0 0.0
2014-Jul-17 10:30N 43°25' E 004°53'0 0.0
2014-Jul-17 09:33N 43°25' E 004°53'0 0.0
2014-Jul-17 08:33N 43°25' E 004°53'0 0.0
2014-Jul-17 07:33N 43°25' E 004°53'0 0.0
2014-Jul-17 06:33N 43°25' E 004°53'0 0.0
2014-Jul-17 05:33N 43°25' E 004°53'0 0.0
2014-Jul-17 04:33N 43°25' E 004°53'0 0.0
2014-Jul-17 03:33N 43°25' E 004°53'0 0.0
2014-Jul-17 02:33N 43°25' E 004°53'0 0.0
2014-Jul-17 01:33N 43°25' E 004°53'0 0.0
2014-Jul-17 00:33N 43°25' E 004°53'0 0.0
2014-Jul-16 23:33N 43°25' E 004°53'0 0.0
2014-Jul-16 22:33N 43°25' E 004°53'0 0.0
2014-Jul-16 21:33N 43°25' E 004°53'0 0.0
2014-Jul-16 20:30N 43°25' E 004°53'0 0.0
2014-Jul-16 19:33N 43°25' E 004°53'0 0.0
2014-Jul-16 18:33N 43°25' E 004°53'0 0.0
2014-Jul-16 17:30N 43°25' E 004°53'3 2.8
2014-Jul-16 16:33N 43°23' E 004°57'4 3.7
2014-Jul-16 15:33N 43°21' E 005°00'0 0.0
2014-Jul-16 14:33N 43°21' E 005°00'0 0.0
2014-Jul-16 13:33N 43°21' E 004°60'0 0.0
2014-Jul-16 12:33N 43°21' E 004°60'0 0.0
2014-Jul-16 11:30N 43°21' E 004°60'0 0.0
2014-Jul-16 10:33N 43°21' E 004°60'0 0.0
2014-Jul-16 09:33N 43°21' E 004°60'0 0.0
2014-Jul-16 08:33N 43°21' E 004°60'0 0.1
2014-Jul-16 07:33N 43°21' E 004°60'0 0.1
2014-Jul-16 06:30N 43°21' E 004°60'0 0.0
2014-Jul-16 05:33N 43°21' E 004°60'0 0.0
2014-Jul-16 04:33N 43°21' E 004°60'0 0.0
2014-Jul-16 03:33N 43°21' E 004°60'0 0.0
2014-Jul-16 02:33N 43°21' E 004°60'0 0.0
2014-Jul-16 01:33N 43°21' E 004°60'0 0.1
2014-Jul-16 00:33N 43°20' E 004°60'0 0.1
2014-Jul-15 23:33N 43°21' E 005°00'0 0.0
2014-Jul-15 22:33N 43°21' E 005°00'0 0.0
2014-Jul-15 21:33N 43°21' E 005°00'0 0.0
2014-Jul-15 20:33N 43°21' E 005°00'0 0.0
2014-Jul-15 19:33N 43°21' E 005°00'0 0.0
2014-Jul-15 18:33N 43°21' E 005°00'0 0.0
2014-Jul-15 17:33N 43°21' E 005°00'0 0.0
2014-Jul-15 16:33N 43°21' E 005°00'0 0.0
2014-Jul-15 15:33N 43°21' E 005°00'0 0.0
2014-Jul-15 14:33N 43°21' E 005°00'0 0.0
2014-Jul-15 13:33N 43°21' E 005°00'0 0.0
2014-Jul-15 12:33N 43°21' E 005°00'0 0.0
2014-Jul-15 11:33N 43°21' E 005°00'0 0.0
2014-Jul-15 10:33N 43°21' E 005°00'0 0.0
2014-Jul-15 09:33N 43°21' E 005°00'0 0.0
2014-Jul-15 08:33N 43°21' E 005°00'0 0.0
2014-Jul-15 07:33N 43°21' E 005°00'0 0.0
2014-Jul-15 06:33N 43°20' E 005°00'0 0.0
2014-Jul-15 05:33N 43°21' E 005°00'0 0.0
2014-Jul-15 04:33N 43°20' E 005°00'0 0.0
2014-Jul-15 03:33N 43°20' E 004°60'0 0.0
2014-Jul-15 02:33N 43°20' E 004°60'0 0.0
2014-Jul-15 01:33N 43°20' E 004°60'0 0.0
2014-Jul-15 00:33N 43°20' E 005°00'0 0.0
2014-Jul-14 23:33N 43°20' E 005°00'0 0.0
2014-Jul-14 22:33N 43°20' E 005°00'0 0.0
2014-Jul-14 21:33N 43°20' E 005°00'0 0.0
2014-Jul-14 20:33N 43°20' E 005°00'0 0.0
2014-Jul-14 19:33N 43°20' E 005°00'0 0.1
2014-Jul-14 18:33N 43°21' E 005°00'0 0.0
2014-Jul-14 17:33N 43°21' E 005°00'0 0.0
2014-Jul-14 16:33N 43°21' E 005°00'0 0.0
2014-Jul-14 15:33N 43°21' E 005°00'0 0.0
2014-Jul-14 14:33N 43°21' E 005°00'0 0.0
2014-Jul-14 13:33N 43°21' E 005°00'0 0.0
2014-Jul-14 12:33N 43°21' E 005°00'  
Track history (hours):
 
Tides and Currents Weather Stations Pressure Air Temp Water Temp Dewpoint Dewpoint Depression Visibility Wind Speed Wind Dir Waves Ship Positions

Promitheas

Last reported at 2014-Jul-24 12:09 UTC. Time now 2014-Jul-28 22:38 UTC.
Position N 31°08' E 029°35'.

Length 249 m; draft 8.4 m.

Type: Tanker. MMSI: 240547000.

Date/timePositionNaut miles runAvg speedWind from/ knotsBaromVisibWave heightAir tempDewpointWater temp
2014-Jul-24 12:09N 31°08' E 029°35'0 0.0
2014-Jul-24 09:21N 31°08' E 029°35'0 0.0
2014-Jul-24 08:33N 31°08' E 029°35'0 0.0
2014-Jul-24 07:33N 31°08' E 029°35'0 0.0
2014-Jul-24 06:27N 31°08' E 029°35'1 1.3
2014-Jul-24 05:33N 31°09' E 029°35'1413.7
2014-Jul-24 04:33N 31°14' E 029°20'1111.2
2014-Jul-24 03:32N 31°18' E 029°08'1311.2
2014-Jul-24 02:21N 31°23' E 028°53'1411.3
2014-Jul-24 01:10N 31°27' E 028°38'711.1
2014-Jul-24 00:33N 31°30' E 028°31'1311.0
2014-Jul-23 23:24N 31°34' E 028°17'910.6
2014-Jul-23 22:33N 31°38' E 028°07'1110.6
2014-Jul-23 21:33N 31°41' E 027°55'1010.5
2014-Jul-23 20:33N 31°45' E 027°44'1010.3
2014-Jul-23 19:33N 31°49' E 027°33'11 2.1
2014-Jul-23 14:10N 31°53' E 027°20'6 9.0
2014-Jul-23 13:33N 31°55' E 027°14'5510.9
2014-Jul-23 08:33N 32°14' E 026°14'6911.5
2014-Jul-23 02:33N 32°39' E 024°57'47311.2
2014-Jul-21 08:25N 35°27' E 016°04'4311.1
2014-Jul-21 04:33N 35°42' E 015°15'1311.2
2014-Jul-21 03:21N 35°47' E 014°59'911.0
2014-Jul-21 02:33N 35°50' E 014°49'5 5.2
2014-Jul-21 01:32N 35°54' E 014°45'0 0.0
2014-Jul-21 00:29N 35°54' E 014°45'0 0.0
2014-Jul-20 23:32N 35°54' E 014°45'0 0.0
2014-Jul-20 22:32N 35°54' E 014°45'0 0.0
2014-Jul-20 21:32N 35°54' E 014°45'0 0.0
2014-Jul-20 20:32N 35°54' E 014°45'0 0.1
2014-Jul-20 19:32N 35°54' E 014°45'0 0.0
2014-Jul-20 18:32N 35°54' E 014°45'0 0.0
2014-Jul-20 17:32N 35°54' E 014°45'0 0.0
2014-Jul-20 16:32N 35°54' E 014°45'0 0.0
2014-Jul-20 15:32N 35°54' E 014°45'0 0.0
2014-Jul-20 14:32N 35°54' E 014°45'1 1.1
2014-Jul-20 13:33N 35°55' E 014°44'10 9.5
2014-Jul-20 12:34N 36°02' E 014°35'1110.9
2014-Jul-20 11:33N 36°10' E 014°26'1111.2
2014-Jul-20 10:33N 36°17' E 014°15'1211.7
2014-Jul-20 09:33N 36°21' E 014°02'1211.7
2014-Jul-20 08:33N 36°26' E 013°49'1211.7
2014-Jul-20 07:33N 36°30' E 013°35'1212.0
2014-Jul-20 06:33N 36°34' E 013°21'1312.7
2014-Jul-20 05:34N 36°39' E 013°07'1313.1
2014-Jul-20 04:33N 36°44' E 012°52'1313.1
2014-Jul-20 03:33N 36°49' E 012°36'1312.8
2014-Jul-20 02:33N 36°54' E 012°22'24011.8
2014-Jul-19 06:11N 38°27' E 007°42'30 9.9
2014-Jul-19 03:11N 38°50' E 007°20'1810.8
2014-Jul-19 01:33N 39°07' E 007°11'1110.7
2014-Jul-19 00:33N 39°17' E 007°06'1110.7
2014-Jul-18 23:33N 39°27' E 007°01'1110.7
2014-Jul-18 22:33N 39°36' E 006°56'1111.1
2014-Jul-18 21:31N 39°47' E 006°50'1111.6
2014-Jul-18 20:32N 39°58' E 006°45'1311.9
2014-Jul-18 19:28N 40°10' E 006°39'3611.7
2014-Jul-18 16:25N 40°43' E 006°21'910.8
2014-Jul-18 15:33N 40°51' E 006°17'1511.5
2014-Jul-18 14:15N 41°05' E 006°09'811.5
2014-Jul-18 13:33N 41°13' E 006°05'1111.5
2014-Jul-18 12:33N 41°23' E 005°60'1211.8
2014-Jul-18 11:33N 41°34' E 005°54'1212.0
2014-Jul-18 10:33N 41°46' E 005°48'1211.8
2014-Jul-18 09:33N 41°57' E 005°42'1211.7
2014-Jul-18 08:33N 42°08' E 005°37'1211.8
2014-Jul-18 07:33N 42°18' E 005°31'1211.9
2014-Jul-18 06:33N 42°29' E 005°25'1211.9
2014-Jul-18 05:33N 42°40' E 005°18'1212.0
2014-Jul-18 04:33N 42°52' E 005°12'1211.7
2014-Jul-18 03:33N 43°02' E 005°06'1211.7
2014-Jul-18 02:33N 43°13' E 005°01'1110.6
2014-Jul-18 01:33N 43°23' E 004°56'2 2.0
2014-Jul-18 00:33N 43°25' E 004°53'0 0.0
2014-Jul-17 23:33N 43°25' E 004°53'0 0.0
2014-Jul-17 22:33N 43°25' E 004°53'0 0.0
2014-Jul-17 21:33N 43°25' E 004°53'0 0.0
2014-Jul-17 20:33N 43°25' E 004°53'0 0.0
2014-Jul-17 19:33N 43°25' E 004°53'0 0.0
2014-Jul-17 18:30N 43°25' E 004°53'0 0.0
2014-Jul-17 17:33N 43°25' E 004°53'0 0.0
2014-Jul-17 16:33N 43°25' E 004°53'0 0.0
2014-Jul-17 15:33N 43°25' E 004°53'0 0.0
2014-Jul-17 14:33N 43°25' E 004°53'0 0.0
2014-Jul-17 13:33N 43°25' E 004°53'0 0.0
2014-Jul-17 12:33N 43°25' E 004°53'0 0.0
2014-Jul-17 11:33N 43°25' E 004°53'0 0.0
2014-Jul-17 10:30N 43°25' E 004°53'0 0.0
2014-Jul-17 09:33N 43°25' E 004°53'0 0.0
2014-Jul-17 08:33N 43°25' E 004°53'0 0.0
2014-Jul-17 07:33N 43°25' E 004°53'0 0.0
2014-Jul-17 06:33N 43°25' E 004°53'0 0.0
2014-Jul-17 05:33N 43°25' E 004°53'0 0.0
2014-Jul-17 04:33N 43°25' E 004°53'0 0.0
2014-Jul-17 03:33N 43°25' E 004°53'0 0.0
2014-Jul-17 02:33N 43°25' E 004°53'0 0.0
2014-Jul-17 01:33N 43°25' E 004°53'0 0.0
2014-Jul-17 00:33N 43°25' E 004°53'0 0.0
2014-Jul-16 23:33N 43°25' E 004°53'0 0.0
2014-Jul-16 22:33N 43°25' E 004°53'0 0.0
2014-Jul-16 21:33N 43°25' E 004°53'0 0.0
2014-Jul-16 20:30N 43°25' E 004°53'0 0.0
2014-Jul-16 19:33N 43°25' E 004°53'0 0.0
2014-Jul-16 18:33N 43°25' E 004°53'0 0.0
2014-Jul-16 17:30N 43°25' E 004°53'3 2.8
2014-Jul-16 16:33N 43°23' E 004°57'4 3.7
2014-Jul-16 15:33N 43°21' E 005°00'0 0.0
2014-Jul-16 14:33N 43°21' E 005°00'0 0.0
2014-Jul-16 13:33N 43°21' E 004°60'0 0.0
2014-Jul-16 12:33N 43°21' E 004°60'0 0.0
2014-Jul-16 11:30N 43°21' E 004°60'0 0.0
2014-Jul-16 10:33N 43°21' E 004°60'0 0.0
2014-Jul-16 09:33N 43°21' E 004°60'0 0.0
2014-Jul-16 08:33N 43°21' E 004°60'0 0.1
2014-Jul-16 07:33N 43°21' E 004°60'0 0.1
2014-Jul-16 06:30N 43°21' E 004°60'0 0.0
2014-Jul-16 05:33N 43°21' E 004°60'0 0.0
2014-Jul-16 04:33N 43°21' E 004°60'0 0.0
2014-Jul-16 03:33N 43°21' E 004°60'0 0.0
2014-Jul-16 02:33N 43°21' E 004°60'0 0.0
2014-Jul-16 01:33N 43°21' E 004°60'0 0.1
2014-Jul-16 00:33N 43°20' E 004°60'0 0.1
2014-Jul-15 23:33N 43°21' E 005°00'0 0.0
2014-Jul-15 22:33N 43°21' E 005°00'0 0.0
2014-Jul-15 21:33N 43°21' E 005°00'0 0.0
2014-Jul-15 20:33N 43°21' E 005°00'0 0.0
2014-Jul-15 19:33N 43°21' E 005°00'0 0.0
2014-Jul-15 18:33N 43°21' E 005°00'0 0.0
2014-Jul-15 17:33N 43°21' E 005°00'0 0.0
2014-Jul-15 16:33N 43°21' E 005°00'0 0.0
2014-Jul-15 15:33N 43°21' E 005°00'0 0.0
2014-Jul-15 14:33N 43°21' E 005°00'0 0.0
2014-Jul-15 13:33N 43°21' E 005°00'0 0.0
2014-Jul-15 12:33N 43°21' E 005°00'0 0.0
2014-Jul-15 11:33N 43°21' E 005°00'0 0.0
2014-Jul-15 10:33N 43°21' E 005°00'0 0.0
2014-Jul-15 09:33N 43°21' E 005°00'0 0.0
2014-Jul-15 08:33N 43°21' E 005°00'0 0.0
2014-Jul-15 07:33N 43°21' E 005°00'0 0.0
2014-Jul-15 06:33N 43°20' E 005°00'0 0.0
2014-Jul-15 05:33N 43°21' E 005°00'0 0.0
2014-Jul-15 04:33N 43°20' E 005°00'0 0.0
2014-Jul-15 03:33N 43°20' E 004°60'0 0.0
2014-Jul-15 02:33N 43°20' E 004°60'0 0.0
2014-Jul-15 01:33N 43°20' E 004°60'0 0.0
2014-Jul-15 00:33N 43°20' E 005°00'0 0.0
2014-Jul-14 23:33N 43°20' E 005°00'0 0.0
2014-Jul-14 22:33N 43°20' E 005°00'0 0.0
2014-Jul-14 21:33N 43°20' E 005°00'0 0.0
2014-Jul-14 20:33N 43°20' E 005°00'0 0.0
2014-Jul-14 19:33N 43°20' E 005°00'0 0.1
2014-Jul-14 18:33N 43°21' E 005°00'0 0.0
2014-Jul-14 17:33N 43°21' E 005°00'0 0.0
2014-Jul-14 16:33N 43°21' E 005°00'0 0.0
2014-Jul-14 15:33N 43°21' E 005°00'0 0.0
2014-Jul-14 14:33N 43°21' E 005°00'0 0.0
2014-Jul-14 13:33N 43°21' E 005°00'0 0.0
2014-Jul-14 12:33N 43°21' E 005°00'  

Dump ship's entire track history